createdAt,value
2023-05-20T00:01:40.875Z,100.00
2023-05-20T00:06:44.150Z,100.00
2023-05-20T00:11:47.356Z,100.00
2023-05-20T00:16:52.723Z,100.00
2023-05-20T00:21:58.180Z,100.00
2023-05-20T00:27:02.902Z,100.00
2023-05-20T00:32:06.484Z,100.00
2023-05-20T00:37:10.416Z,100.00
2023-05-20T00:42:20.697Z,100.00
2023-05-20T00:47:29.323Z,100.00
2023-05-20T00:52:33.742Z,100.00
2023-05-20T00:57:37.209Z,100.00
2023-05-20T01:02:40.510Z,100.00
2023-05-20T01:07:44.291Z,100.00
2023-05-20T01:12:54.849Z,100.00
2023-05-20T01:18:02.069Z,100.00
2023-05-20T01:23:05.362Z,100.00
2023-05-20T01:28:09.772Z,100.00
2023-05-20T01:33:15.152Z,100.00
2023-05-20T01:38:19.924Z,100.00
2023-05-20T01:43:24.681Z,100.00
2023-05-20T01:48:28.002Z,100.00
2023-05-20T01:53:31.638Z,100.00
2023-05-20T01:58:35.040Z,100.00
2023-05-20T02:03:48.636Z,100.00
2023-05-20T02:08:51.884Z,100.00
2023-05-20T02:13:55.633Z,100.00
2023-05-20T02:18:59.088Z,100.00
2023-05-20T02:24:02.370Z,100.00
2023-05-20T02:29:06.068Z,100.00
2023-05-20T02:34:09.344Z,100.00
2023-05-20T02:39:12.923Z,100.00
2023-05-20T02:44:17.028Z,100.00
2023-05-20T02:49:20.542Z,100.00
2023-05-20T02:54:23.777Z,100.00
2023-05-20T02:59:27.153Z,100.00
2023-05-20T03:04:32.157Z,100.00
2023-05-20T03:09:35.885Z,100.00
2023-05-20T03:14:39.055Z,100.00
2023-05-20T03:19:42.518Z,100.00
2023-05-20T03:24:46.587Z,100.00
2023-05-20T03:29:49.880Z,100.00
2023-05-20T03:34:54.754Z,100.00
2023-05-20T03:39:58.270Z,100.00
2023-05-20T03:45:01.774Z,100.00
2023-05-20T03:50:08.381Z,100.00
2023-05-20T03:55:12.045Z,100.00
2023-05-20T04:00:17.055Z,100.00
2023-05-20T04:05:20.295Z,100.00
2023-05-20T04:10:23.999Z,100.00
2023-05-20T04:15:30.021Z,100.00
2023-05-20T04:20:34.433Z,100.00
2023-05-20T04:25:39.062Z,99.00
2023-05-20T04:30:45.302Z,98.05
2023-05-20T04:35:49.398Z,96.55
2023-05-20T04:40:52.794Z,95.99
2023-05-20T04:46:06.219Z,95.63
2023-05-20T04:51:10.961Z,95.05
2023-05-20T04:56:15.549Z,94.76
2023-05-20T05:01:19.514Z,94.31
2023-05-20T05:06:22.984Z,93.71
2023-05-20T05:11:26.626Z,93.50
2023-05-20T05:16:30.069Z,92.71
2023-05-20T05:21:33.300Z,92.85
2023-05-20T05:26:36.664Z,91.93
2023-05-20T05:31:40.092Z,91.46
2023-05-20T05:36:43.908Z,90.52
2023-05-20T05:41:47.595Z,89.87
2023-05-20T05:46:51.163Z,90.14
2023-05-20T05:51:55.745Z,88.94
2023-05-20T05:56:59.631Z,89.40
2023-05-20T06:02:04.912Z,88.82
2023-05-20T06:07:08.446Z,88.19
2023-05-20T06:12:13.962Z,87.51
2023-05-20T06:17:18.111Z,86.69
2023-05-20T06:22:24.855Z,86.48
2023-05-20T06:27:37.930Z,85.36
2023-05-20T06:32:43.636Z,84.87
2023-05-20T06:37:47.583Z,84.61
2023-05-20T06:42:51.075Z,82.32
2023-05-20T06:47:54.857Z,81.68
2023-05-20T06:52:58.261Z,81.64
2023-05-20T06:58:02.129Z,80.38
2023-05-20T07:03:05.975Z,79.60
2023-05-20T07:08:09.409Z,79.50
2023-05-20T07:13:12.747Z,77.92
2023-05-20T07:18:16.461Z,78.03
2023-05-20T07:23:24.409Z,77.66
2023-05-20T07:28:29.614Z,76.70
2023-05-20T07:33:33.166Z,77.45
2023-05-20T07:38:36.472Z,76.74
2023-05-20T07:43:43.228Z,75.21
2023-05-20T07:48:47.050Z,75.05
2023-05-20T07:53:51.812Z,76.08
2023-05-20T07:58:58.463Z,75.45
2023-05-20T08:04:04.840Z,72.50
2023-05-20T08:09:11.817Z,72.60
2023-05-20T08:14:17.440Z,73.19
2023-05-20T08:19:23.436Z,74.88
2023-05-20T08:24:26.901Z,73.68
2023-05-20T08:29:31.304Z,72.43
2023-05-20T08:34:34.783Z,71.82
2023-05-20T08:39:37.981Z,72.44
2023-05-20T08:44:42.766Z,70.58
2023-05-20T08:49:46.361Z,69.47
2023-05-20T08:54:51.779Z,68.80
2023-05-20T08:59:57.480Z,68.23
2023-05-20T09:05:01.111Z,68.19
2023-05-20T09:10:05.496Z,68.30
2023-05-20T09:15:09.757Z,67.71
2023-05-20T09:20:14.266Z,66.48
2023-05-20T09:25:23.166Z,65.24
2023-05-20T09:30:27.371Z,64.43
2023-05-20T09:35:30.879Z,65.05
2023-05-20T09:40:34.087Z,65.02
2023-05-20T09:45:38.789Z,62.82
2023-05-20T09:50:42.800Z,62.36
2023-05-20T09:55:46.961Z,63.44
2023-05-20T10:00:50.388Z,61.86
2023-05-20T10:06:31.775Z,62.03
2023-05-20T10:11:46.298Z,61.99
2023-05-20T10:17:08.166Z,61.80
2023-05-20T10:22:14.948Z,61.70
2023-05-20T10:27:18.285Z,62.48
2023-05-20T10:32:29.488Z,61.18
2023-05-20T10:37:40.734Z,59.47
2023-05-20T10:42:48.772Z,60.35
2023-05-20T10:47:59.182Z,60.61
2023-05-20T10:53:09.434Z,60.64
2023-05-20T10:58:16.586Z,59.99
2023-05-20T11:03:22.808Z,58.85
2023-05-20T11:08:31.701Z,59.55
2023-05-20T11:13:34.797Z,59.49
2023-05-20T11:18:38.035Z,58.80
2023-05-20T11:23:42.282Z,59.18
2023-05-20T11:28:46.506Z,58.98
2023-05-20T11:33:50.979Z,58.55
2023-05-20T11:38:54.757Z,58.01
2023-05-20T11:44:01.723Z,57.70
2023-05-20T11:49:07.687Z,58.27
2023-05-20T11:54:11.518Z,56.50
2023-05-20T11:59:14.958Z,55.70
2023-05-20T12:04:18.799Z,57.04
2023-05-20T12:09:22.727Z,56.09
2023-05-20T12:14:26.179Z,56.28
2023-05-20T12:19:29.482Z,57.34
2023-05-20T12:24:33.442Z,55.23
2023-05-20T12:29:37.195Z,53.67
2023-05-20T12:34:40.326Z,53.93
2023-05-20T12:39:43.350Z,55.24
2023-05-20T12:44:46.516Z,54.91
2023-05-20T12:49:49.773Z,54.57
2023-05-20T12:54:56.547Z,54.38
2023-05-20T12:59:59.666Z,53.61
2023-05-20T13:05:02.836Z,54.29
2023-05-20T13:10:07.710Z,54.94
2023-05-20T13:15:12.770Z,54.41
2023-05-20T13:20:19.675Z,54.57
2023-05-20T13:25:23.012Z,54.51
2023-05-20T13:30:26.212Z,53.83
2023-05-20T13:35:29.399Z,53.86
2023-05-20T13:40:32.696Z,54.51
2023-05-20T13:45:36.196Z,53.20
2023-05-20T13:50:39.424Z,53.47
2023-05-20T13:55:42.717Z,53.56
2023-05-20T14:00:46.354Z,54.11
2023-05-20T14:05:49.696Z,54.41
2023-05-20T14:10:56.312Z,54.78
2023-05-20T14:15:59.618Z,54.97
2023-05-20T14:21:02.973Z,54.88
2023-05-20T14:26:06.384Z,54.26
2023-05-20T14:31:10.916Z,53.35
2023-05-20T14:36:14.332Z,53.86
2023-05-20T14:41:17.692Z,54.02
2023-05-20T14:46:21.357Z,53.74
2023-05-20T14:51:24.703Z,53.77
2023-05-20T14:56:28.221Z,53.97
2023-05-20T15:01:31.499Z,53.82
2023-05-20T15:06:36.147Z,53.58
2023-05-20T15:11:39.437Z,54.28
2023-05-20T15:16:44.608Z,53.99
2023-05-20T15:21:49.724Z,53.62
2023-05-20T15:26:54.305Z,54.40
2023-05-20T15:31:57.555Z,54.53
2023-05-20T15:37:00.740Z,54.55
2023-05-20T15:42:04.243Z,54.19
2023-05-20T15:47:07.469Z,54.26
2023-05-20T15:52:10.852Z,55.11
2023-05-20T15:57:13.934Z,54.85
2023-05-20T16:02:17.228Z,54.64
2023-05-20T16:07:20.737Z,54.49
2023-05-20T16:12:24.336Z,54.43
2023-05-20T16:17:27.667Z,53.70
2023-05-20T16:22:30.933Z,53.21
2023-05-20T16:27:34.574Z,53.41
2023-05-20T16:32:37.872Z,53.38
2023-05-20T16:37:41.158Z,53.66
2023-05-20T16:42:44.918Z,53.81
2023-05-20T16:47:48.153Z,54.24
2023-05-20T16:52:51.638Z,54.58
2023-05-20T16:57:54.853Z,54.85
2023-05-20T17:02:58.444Z,54.84
2023-05-20T17:08:02.002Z,55.39
2023-05-20T17:13:05.491Z,55.46
2023-05-20T17:18:08.935Z,55.21
2023-05-20T17:23:12.260Z,55.67
2023-05-20T17:28:15.759Z,55.74
2023-05-20T17:33:24.705Z,55.55
2023-05-20T17:38:28.264Z,55.21
2023-05-20T17:43:31.443Z,55.41
2023-05-20T17:48:34.547Z,55.82
2023-05-20T17:53:37.728Z,55.81
2023-05-20T17:58:41.057Z,55.84
2023-05-20T18:03:44.539Z,56.22
2023-05-20T18:08:48.062Z,56.30
2023-05-20T18:13:51.638Z,56.29
2023-05-20T18:18:55.700Z,56.64
2023-05-20T18:23:59.186Z,56.90
2023-05-20T18:29:02.497Z,57.14
2023-05-20T18:34:06.340Z,57.29
2023-05-20T18:39:10.280Z,57.65
2023-05-20T18:44:17.987Z,58.06
2023-05-20T18:49:21.418Z,58.67
2023-05-20T18:54:24.600Z,58.92
2023-05-20T18:59:27.982Z,59.90
2023-05-20T19:04:31.738Z,60.30
2023-05-20T19:09:34.833Z,61.00
2023-05-20T19:14:39.493Z,61.65
2023-05-20T19:19:43.127Z,62.62
2023-05-20T19:24:46.514Z,63.21
2023-05-20T19:29:49.626Z,63.58
2023-05-20T19:34:52.767Z,64.09
2023-05-20T19:39:56.424Z,64.53
2023-05-20T19:44:59.994Z,64.67
2023-05-20T19:50:04.349Z,64.87
2023-05-20T19:55:08.632Z,64.99
2023-05-20T20:00:12.975Z,65.08
2023-05-20T20:05:16.326Z,65.59
2023-05-20T20:10:20.025Z,64.91
2023-05-20T20:15:24.307Z,64.72
2023-05-20T20:20:27.874Z,65.12
2023-05-20T20:25:34.301Z,65.23
2023-05-20T20:30:38.354Z,65.64
2023-05-20T20:35:42.210Z,65.38
2023-05-20T20:40:46.256Z,65.57
2023-05-20T20:45:53.263Z,65.97
2023-05-20T20:50:56.763Z,64.98
2023-05-20T20:55:59.949Z,64.51
2023-05-20T21:01:04.008Z,64.75
2023-05-20T21:06:08.138Z,65.04
2023-05-20T21:11:11.584Z,65.50
2023-05-20T21:16:15.155Z,65.86
2023-05-20T21:21:20.779Z,66.63
2023-05-20T21:26:25.845Z,67.08
2023-05-20T21:31:29.233Z,67.78
2023-05-20T21:36:32.783Z,68.67
2023-05-20T21:41:36.221Z,69.26
2023-05-20T21:46:39.728Z,69.73
2023-05-20T21:51:43.091Z,70.08
2023-05-20T21:56:46.280Z,70.81
2023-05-20T22:01:51.001Z,71.19
2023-05-20T22:06:56.304Z,71.32
2023-05-20T22:12:00.044Z,71.59
2023-05-20T22:17:03.313Z,71.67
2023-05-20T22:22:06.710Z,71.91
2023-05-20T22:27:09.916Z,72.21
2023-05-20T22:32:13.164Z,72.20
2023-05-20T22:37:16.976Z,72.39
2023-05-20T22:42:20.115Z,73.12
2023-05-20T22:47:23.418Z,73.40
2023-05-20T22:52:29.813Z,73.53
2023-05-20T22:57:33.182Z,73.81
2023-05-20T23:02:36.465Z,74.06
2023-05-20T23:07:39.728Z,74.40
2023-05-20T23:12:42.970Z,74.57
2023-05-20T23:17:46.240Z,74.59
2023-05-20T23:22:49.833Z,74.96
2023-05-20T23:27:53.085Z,75.42
2023-05-20T23:32:57.965Z,75.17
2023-05-20T23:38:01.616Z,74.80
2023-05-20T23:43:04.860Z,74.58
2023-05-20T23:48:11.507Z,74.53
2023-05-20T23:53:14.822Z,74.41
2023-05-20T23:58:18.160Z,75.04
